This is the latest recevied weather packets stored in our database for station/object TG9ADI-20. If no packets are shown the sender has not sent any weather packets the latest 10 day(s).
| Time | Temp. | Humidity | Pressure | Rain* | Wind** | Luminosity | Snow |
|---|---|---|---|---|---|---|---|
| 1778075994 | 19.44° C | 88% | 1015 hPa | 0 mm | - | - | - |
| 1778075393 | 19.44° C | 88% | 1015 hPa | 0 mm | - | - | - |
| 1778074793 | 18.89° C | 89% | 1015 hPa | 0 mm | - | - | - |
| 1778074192 | 19.44° C | 92% | 1015 hPa | 0 mm | - | - | - |
| 1778073592 | 19.44° C | 93% | 1015 hPa | 0 mm | - | - | - |
| 1778072991 | 19.44° C | 93% | 1015 hPa | 0 mm | - | - | - |
| 1778072391 | 18.89° C | 97% | 1015 hPa | 0 mm | - | - | - |
| 1778071790 | 18.33° C | 97% | 1015 hPa | 0 mm | - | - | - |
| 1778071189 | 18.33° C | 97% | 1015 hPa | 0 mm | - | - | - |
| 1778070589 | 17.78° C | 96% | 1015 hPa | 0 mm | - | - | - |
| 1778069988 | 17.78° C | 96% | 1015 hPa | 0 mm | - | - | - |
| 1778069388 | 17.78° C | 95% | 1015 hPa | 0 mm | - | - | - |
| 1778068787 | 18.89° C | 93% | 1015 hPa | 0 mm | - | - | - |
| 1778068186 | 16.11° C | 97% | 1015 hPa | 0 mm | - | - | - |
| 1778067586 | 16.11° C | 97% | 1015 hPa | 0 mm | - | - | - |
| 1778066985 | 17.22° C | 96% | 1015 hPa | 0 mm | - | - | - |
| 1778066385 | 17.22° C | 96% | 1015 hPa | 0 mm | - | - | - |
| 1778065784 | 18.89° C | 93% | 1016 hPa | 0 mm | - | - | - |
| 1778065184 | 16.67° C | 96% | 1016 hPa | 0 mm | - | - | - |
| 1778064583 | 16.67° C | 96% | 1016 hPa | 0 mm | - | - | - |
| 1778063983 | 16.67° C | 96% | 1016 hPa | 0 mm | - | - | - |
| 1778063382 | 17.22° C | 96% | 1014 hPa | 0 mm | - | - | - |
| 1778062781 | 17.78° C | 95% | 1014 hPa | 0 mm | - | - | - |
| 1778062181 | 18.89° C | 92% | 1014 hPa | 0 mm | - | - | - |
| 1778061580 | 18.89° C | 92% | 1014 hPa | 0 mm | - | - | - |
* Rain latest hour (hover to see other rain measurements)
** Current wind speed in m/s (hover to see current wind gust speed)